Pagina principale
METAR-TAF:

METAR-TAF

Aeroporti :

Aeroporto di Reykjavík

Reykjavík, Islanda

latitudine: 64-08N, longitudine: 021-54W, altezza: 54 m

Osservazione

Il bollettino è stato emesso 1 ora e 4 minuti fa, alle 02:00 UTC
Vento 9 kt da sud
Temperature -5°C
Umidità 73%
Pressione 1024 hPa
Visibilità 10 km o più
nessuna nube inferiore a 1500 m e nessun cumulonembo

METAR: BIRK 020200Z 18009KT CAVOK M05/M09 Q1024

Ora: 03:04 (03:04 UTC)

Previsione

Il bollettino è stato emesso 2 ore e 3 minuti fa, alle 01:01 UTC
Previsione valida dal 02 alle 03 UTC al 03 alle 03 UTC
Vento 5 kt da est
Visibilità 10 km o più
nessuna nube inferiore a 1500 m e nessun cumulonembo

TAF: BIRK 020101Z 0203/0303 09005KT CAVOK TXM01/0216Z TNM07/0206Z

Osservazioni e previsioni meteorologiche di più di 4000 aeroporti (messaggi METAR e TAF).

Le stazioni disponibili sono rappresentate dai dischi gialli e rossi sulla carta.

Puntare il mouse per vedere il nome della stazione.

Clicca sopra per visualizzare le osservazioni e previsioni meteorologiche.

Per cambiare la mappa : fare clic sui pulsanti verdi con una croce nera per ingrandire, il pulsante verde con un trattino per diminuire, o sulla freccia verde per le mappe adiacenti.


METAR-TAF: